Time;durP1;ratioP1;P1;durP2;ratioP2;P2;SDS_P1;SDS_P2;PMS_P1;PMS_P2;Temp;Humidity;BMP_temperature;BMP_pressure;BME280_temperature;BME280_humidity;BME280_pressure;Samples;Min_cycle;Max_cycle;Signal;HPM_P1;HPM_P2
2021/11/25 00:00:51;;;;;;;56.53;17.90;;;3.20;68.70;;;;;;5046361;28;20511;-79
2021/11/25 00:03:17;;;;;;;75.20;20.90;;;3.10;68.60;;;;;;5061944;28;20456;-79
2021/11/25 00:05:43;;;;;;;43.17;17.97;;;3.10;69.00;;;;;;5064007;28;20039;-78
2021/11/25 00:08:09;;;;;;;72.37;19.03;;;3.20;69.30;;;;;;5051109;28;20028;-79
2021/11/25 00:10:36;;;;;;;34.47;16.33;;;3.20;69.40;;;;;;5050655;28;20399;-79
2021/11/25 00:13:02;;;;;;;36.30;17.70;;;3.20;69.10;;;;;;5066583;28;20055;-79
2021/11/25 00:15:28;;;;;;;57.63;16.80;;;3.20;69.20;;;;;;5066279;28;20035;-79
2021/11/25 00:17:54;;;;;;;38.40;16.73;;;3.10;69.10;;;;;;5047347;28;20036;-79
2021/11/25 00:20:21;;;;;;;38.40;15.63;;;3.00;69.10;;;;;;5045511;28;20034;-79
2021/11/25 00:22:47;;;;;;;33.30;17.67;;;3.20;69.40;;;;;;5073924;28;21429;-79
2021/11/25 00:25:13;;;;;;;34.83;17.23;;;3.20;69.00;;;;;;5070780;28;20035;-79
2021/11/25 00:27:42;;;;;;;27.33;15.83;;;3.20;68.90;;;;;;5055842;28;20044;-79
2021/11/25 00:30:11;;;;;;;23.13;14.40;;;3.30;68.90;;;;;;5057049;28;20031;-79
2021/11/25 00:32:37;;;;;;;26.97;15.07;;;3.30;68.80;;;;;;5070562;28;20075;-79
2021/11/25 00:35:05;;;;;;;28.73;15.17;;;3.30;68.80;;;;;;5071916;28;20020;-79
2021/11/25 00:37:31;;;;;;;28.23;16.00;;;3.30;68.80;;;;;;5056115;28;20029;-79
2021/11/25 00:39:57;;;;;;;29.80;15.20;;;3.30;68.70;;;;;;5054636;28;20135;-78
2021/11/25 00:42:22;;;;;;;24.67;14.30;;;3.20;68.60;;;;;;5075395;28;20098;-79
2021/11/25 00:44:48;;;;;;;22.43;13.70;;;3.20;68.70;;;;;;5062227;28;20025;-79
2021/11/25 00:47:14;;;;;;;19.63;12.73;;;3.20;69.10;;;;;;5069028;28;20104;-78
2021/11/25 00:49:40;;;;;;;22.90;12.67;;;3.20;68.80;;;;;;5053695;28;20029;-78
2021/11/25 00:52:05;;;;;;;22.03;13.60;;;3.20;68.70;;;;;;5062432;28;20071;-79
2021/11/25 00:54:31;;;;;;;20.63;13.57;;;3.10;68.40;;;;;;5064207;28;20036;-79
2021/11/25 00:56:57;;;;;;;24.53;13.63;;;3.10;68.40;;;;;;5075869;28;20043;-79
2021/11/25 00:59:22;;;;;;;22.23;13.77;;;3.10;68.10;;;;;;5054290;28;20399;-78
2021/11/25 01:01:48;;;;;;;22.17;13.13;;;3.10;68.10;;;;;;5061326;28;20403;-78
2021/11/25 01:04:14;;;;;;;20.50;13.10;;;3.10;68.10;;;;;;5055178;28;20219;-79
2021/11/25 01:06:40;;;;;;;24.97;14.40;;;3.20;68.00;;;;;;5044793;28;20480;-79
2021/11/25 01:09:05;;;;;;;27.20;15.63;;;3.20;67.90;;;;;;5057412;28;20025;-79
2021/11/25 01:11:31;;;;;;;34.00;16.20;;;3.20;67.90;;;;;;5072419;28;20052;-79
2021/11/25 01:13:57;;;;;;;35.50;16.77;;;3.20;67.90;;;;;;5055915;28;20032;-79
2021/11/25 01:16:23;;;;;;;28.57;15.80;;;3.20;68.10;;;;;;5075060;28;20086;-79
2021/11/25 01:18:50;;;;;;;23.00;13.77;;;3.20;68.30;;;;;;5054931;28;20024;-79
2021/11/25 01:21:16;;;;;;;24.53;13.73;;;3.20;68.20;;;;;;5070110;28;20052;-79
2021/11/25 01:23:42;;;;;;;22.83;12.77;;;3.10;68.30;;;;;;5062794;28;20028;-79
2021/11/25 01:26:08;;;;;;;22.63;12.80;;;3.10;68.60;;;;;;5074999;28;20041;-79
2021/11/25 01:28:34;;;;;;;19.40;12.07;;;3.10;68.30;;;;;;5067916;28;20037;-78
2021/11/25 01:31:01;;;;;;;15.30;10.40;;;3.10;68.40;;;;;;5066819;28;20115;-79
2021/11/25 01:33:29;;;;;;;23.67;11.07;;;3.10;68.30;;;;;;5102315;28;20112;-79
2021/11/25 01:35:56;;;;;;;14.13;9.17;;;3.10;68.30;;;;;;5081796;28;20043;-79
2021/11/25 01:38:22;;;;;;;14.37;9.57;;;3.10;68.20;;;;;;5057697;28;20085;-79
2021/11/25 01:40:49;;;;;;;16.47;9.90;;;3.00;68.10;;;;;;5080399;28;20048;-79
2021/11/25 01:43:20;;;;;;;13.50;9.13;;;3.00;68.00;;;;;;5056770;28;20112;-80
2021/11/25 01:45:48;;;;;;;13.17;9.30;;;3.00;67.70;;;;;;5054647;28;20028;-79
2021/11/25 01:48:14;;;;;;;16.77;8.63;;;3.10;67.50;;;;;;5072054;28;20637;-79
2021/11/25 01:50:40;;;;;;;12.53;8.47;;;3.10;67.30;;;;;;5066844;28;20452;-79
2021/11/25 01:53:05;;;;;;;15.43;9.23;;;3.00;67.30;;;;;;5067691;28;20013;-79
2021/11/25 01:55:32;;;;;;;13.10;7.83;;;3.00;67.20;;;;;;5078342;28;20027;-79
2021/11/25 01:57:57;;;;;;;13.33;7.63;;;3.00;67.10;;;;;;5081401;28;20028;-80
2021/11/25 02:00:31;;;;;;;12.03;7.57;;;3.00;66.90;;;;;;5059879;28;20085;-79
2021/11/25 02:02:58;;;;;;;15.17;7.53;;;2.90;66.70;;;;;;5079667;28;20024;-79
2021/11/25 02:05:24;;;;;;;14.67;7.23;;;2.90;66.80;;;;;;5076925;28;20025;-80
2021/11/25 02:07:50;;;;;;;11.30;6.20;;;2.90;66.80;;;;;;5071843;28;20024;-79
2021/11/25 02:10:17;;;;;;;11.13;6.53;;;2.90;66.70;;;;;;5059614;28;20090;-79
2021/11/25 02:12:43;;;;;;;10.83;7.50;;;2.80;66.90;;;;;;5065198;28;20047;-79
2021/11/25 02:15:11;;;;;;;14.00;9.00;;;2.90;67.10;;;;;;5075270;28;20021;-79
2021/11/25 02:17:37;;;;;;;13.63;7.30;;;2.90;66.90;;;;;;5076436;28;20024;-79
2021/11/25 02:20:05;;;;;;;17.33;7.17;;;2.90;66.70;;;;;;5056624;28;20028;-79
2021/11/25 02:22:31;;;;;;;10.60;6.23;;;2.90;66.70;;;;;;5074053;28;20028;-79
2021/11/25 02:24:57;;;;;;;10.13;6.27;;;2.80;66.70;;;;;;5056206;28;20031;-79
2021/11/25 02:27:23;;;;;;;9.73;5.57;;;2.80;66.80;;;;;;5055040;28;20040;-79
2021/11/25 02:29:50;;;;;;;10.80;6.57;;;2.90;66.90;;;;;;5050416;28;20043;-79
2021/11/25 02:32:48;;;;;;;10.23;6.20;;;2.90;66.90;;;;;;5071458;28;20056;-79
2021/11/25 02:35:17;;;;;;;10.33;6.37;;;2.90;66.80;;;;;;5049044;28;20427;-79
2021/11/25 02:37:43;;;;;;;14.63;6.77;;;2.80;66.60;;;;;;5051229;28;20021;-80
2021/11/25 02:40:24;;;;;;;11.20;6.50;;;2.80;66.80;;;;;;5044158;28;20051;-81
2021/11/25 02:42:53;;;;;;;12.57;7.97;;;2.80;66.90;;;;;;5073413;28;20075;-81
2021/11/25 02:45:21;;;;;;;16.60;8.67;;;2.80;66.70;;;;;;5064788;28;20047;-81
2021/11/25 02:47:47;;;;;;;17.37;9.47;;;2.70;66.80;;;;;;5053310;28;20104;-81
2021/11/25 02:50:16;;;;;;;16.23;9.63;;;2.80;66.90;;;;;;5069113;28;20120;-81
2021/11/25 02:52:42;;;;;;;17.00;11.70;;;2.80;66.90;;;;;;5055281;28;20056;-81
2021/11/25 02:55:09;;;;;;;18.63;11.73;;;2.70;66.80;;;;;;5066031;28;20047;-81
2021/11/25 02:57:36;;;;;;;16.77;12.07;;;2.70;66.80;;;;;;5069152;28;20020;-81
2021/11/25 03:00:05;;;;;;;18.90;10.53;;;2.70;67.00;;;;;;5071268;28;20099;-81
2021/11/25 03:02:31;;;;;;;12.97;8.27;;;2.60;67.30;;;;;;5054331;28;20513;-80
2021/11/25 03:04:56;;;;;;;13.83;8.00;;;2.70;67.30;;;;;;5069019;28;20021;-81
2021/11/25 03:07:22;;;;;;;14.47;9.47;;;2.70;67.30;;;;;;5071899;28;20029;-81
2021/11/25 03:09:48;;;;;;;15.20;10.97;;;2.60;67.10;;;;;;5059282;28;20123;-81
2021/11/25 03:12:14;;;;;;;14.60;11.20;;;2.50;67.10;;;;;;5053716;28;20851;-81
2021/11/25 03:14:40;;;;;;;14.80;11.37;;;2.50;67.90;;;;;;5044927;28;20384;-81
2021/11/25 03:17:06;;;;;;;19.13;11.40;;;2.50;67.20;;;;;;5071500;28;20025;-81
2021/11/25 03:19:32;;;;;;;16.63;11.07;;;2.50;67.30;;;;;;5088819;28;20399;-80
2021/11/25 03:21:58;;;;;;;14.70;10.30;;;2.40;67.50;;;;;;5052720;28;20025;-81
2021/11/25 03:24:23;;;;;;;16.63;10.50;;;2.40;67.40;;;;;;5093083;28;20029;-81
2021/11/25 03:26:49;;;;;;;17.10;11.67;;;2.30;67.60;;;;;;5068335;28;20166;-81
2021/11/25 03:29:16;;;;;;;14.03;10.47;;;2.30;67.50;;;;;;5069015;28;20026;-81
2021/11/25 03:31:42;;;;;;;15.03;10.70;;;2.20;67.50;;;;;;5074135;28;20361;-81
2021/11/25 03:34:07;;;;;;;13.37;9.43;;;2.20;67.60;;;;;;5053594;28;20027;-81
2021/11/25 03:36:33;;;;;;;12.57;9.50;;;2.30;67.80;;;;;;5072448;28;20025;-81
2021/11/25 03:38:59;;;;;;;15.20;10.13;;;2.20;67.80;;;;;;5058033;28;20060;-81
2021/11/25 03:41:26;;;;;;;16.27;9.67;;;2.20;67.80;;;;;;5087897;28;20024;-80
2021/11/25 03:43:51;;;;;;;14.20;10.00;;;2.30;67.80;;;;;;5051485;28;20530;-80
2021/11/25 03:46:17;;;;;;;13.87;10.17;;;2.30;67.30;;;;;;5067795;28;20028;-81
2021/11/25 03:48:43;;;;;;;16.00;10.60;;;2.30;67.40;;;;;;5069381;28;20519;-80
2021/11/25 03:51:12;;;;;;;20.93;12.03;;;2.10;67.60;;;;;;5052513;28;20455;-81
2021/11/25 03:53:41;;;;;;;20.00;10.17;;;2.20;67.70;;;;;;5071540;28;20023;-81
2021/11/25 03:56:06;;;;;;;18.17;10.33;;;2.20;67.70;;;;;;5053638;28;20031;-81
2021/11/25 03:58:32;;;;;;;13.03;8.63;;;2.20;67.60;;;;;;5068842;28;20028;-80
2021/11/25 04:00:59;;;;;;;23.57;12.23;;;2.20;67.50;;;;;;5070651;28;20054;-80
2021/11/25 04:03:25;;;;;;;20.53;10.97;;;2.20;67.60;;;;;;5052286;28;20123;-81
2021/11/25 04:05:51;;;;;;;21.40;11.43;;;2.20;67.60;;;;;;5059260;28;20028;-81
2021/11/25 04:08:17;;;;;;;21.83;11.80;;;2.30;67.70;;;;;;5053804;28;20060;-81
2021/11/25 04:10:43;;;;;;;24.97;11.33;;;2.30;67.50;;;;;;5070159;28;20055;-80
2021/11/25 04:13:09;;;;;;;47.80;12.10;;;2.30;67.40;;;;;;5048987;28;20482;-81
2021/11/25 04:15:35;;;;;;;22.07;10.20;;;2.30;67.50;;;;;;5066648;28;20120;-81
2021/11/25 04:18:01;;;;;;;21.47;11.03;;;2.20;67.40;;;;;;5070322;28;20102;-81
2021/11/25 04:20:27;;;;;;;22.60;11.00;;;2.30;67.90;;;;;;5072286;28;20090;-81
2021/11/25 04:22:53;;;;;;;22.23;10.23;;;2.30;67.80;;;;;;5042727;28;20028;-81
2021/11/25 04:25:19;;;;;;;21.10;10.40;;;2.30;67.60;;;;;;5069861;28;20037;-81
2021/11/25 04:27:46;;;;;;;21.83;10.77;;;2.40;67.60;;;;;;5071032;28;20091;-80
2021/11/25 04:35:43;;;;;;;20.77;10.20;;;2.40;68.00;;;;;;4997797;28;20080;-81
2021/11/25 04:38:11;;;;;;;22.10;9.70;;;2.30;67.40;;;;;;5044204;28;20036;-80
2021/11/25 04:40:43;;;;;;;14.63;8.80;;;2.30;67.70;;;;;;5070390;28;20024;-80
2021/11/25 04:43:08;;;;;;;24.20;10.23;;;2.30;67.80;;;;;;5069432;28;20100;-80
2021/11/25 04:45:36;;;;;;;20.07;9.50;;;2.30;67.70;;;;;;5057040;28;20116;-81
2021/11/25 04:48:02;;;;;;;18.57;9.80;;;2.20;67.80;;;;;;5061738;28;20032;-80
2021/11/25 04:50:28;;;;;;;27.40;11.87;;;2.30;67.90;;;;;;5074212;28;20020;-81
2021/11/25 04:52:54;;;;;;;20.60;11.43;;;2.20;67.70;;;;;;5053122;28;20531;-80
2021/11/25 04:55:20;;;;;;;22.83;12.03;;;2.20;67.80;;;;;;5069778;28;20095;-80
2021/11/25 04:57:46;;;;;;;19.63;11.00;;;2.20;67.80;;;;;;5053428;28;20044;-80
2021/11/25 05:00:13;;;;;;;19.63;10.33;;;2.20;67.90;;;;;;5072580;28;20036;-81
2021/11/25 05:02:39;;;;;;;21.93;10.83;;;2.20;67.90;;;;;;5071634;28;20593;-81
2021/11/25 05:05:05;;;;;;;24.23;12.30;;;2.20;67.80;;;;;;5065956;28;20029;-81
2021/11/25 05:07:31;;;;;;;23.83;12.43;;;2.20;67.60;;;;;;5052984;28;20033;-81
2021/11/25 05:09:57;;;;;;;21.73;10.77;;;2.20;67.70;;;;;;5062257;28;20024;-81
2021/11/25 05:12:23;;;;;;;24.80;11.27;;;2.20;67.90;;;;;;5054525;28;20051;-81
2021/11/25 05:14:49;;;;;;;19.40;9.60;;;2.20;67.90;;;;;;5059379;28;20082;-81
2021/11/25 05:17:15;;;;;;;17.23;10.00;;;2.20;68.00;;;;;;5050575;28;20471;-81
2021/11/25 05:19:41;;;;;;;21.83;11.97;;;2.30;67.90;;;;;;5047855;28;20032;-80
2021/11/25 05:22:07;;;;;;;21.77;10.57;;;2.30;67.80;;;;;;5071279;28;20090;-81
2021/11/25 05:24:33;;;;;;;20.03;11.30;;;2.30;67.70;;;;;;5076441;28;20028;-80
2021/11/25 05:26:58;;;;;;;17.97;10.67;;;2.20;67.80;;;;;;5066097;28;20052;-81
2021/11/25 05:29:25;;;;;;;20.00;11.00;;;2.20;67.80;;;;;;5087876;28;20051;-81
2021/11/25 05:31:51;;;;;;;22.17;10.93;;;2.20;67.80;;;;;;5052188;28;20053;-80
2021/11/25 05:34:18;;;;;;;16.50;10.13;;;2.20;67.90;;;;;;5052682;28;20017;-81
2021/11/25 05:36:44;;;;;;;17.53;10.07;;;2.20;67.80;;;;;;5073281;28;20111;-81
2021/11/25 05:39:10;;;;;;;13.97;9.30;;;2.20;67.80;;;;;;5072911;28;20318;-81
2021/11/25 05:41:40;;;;;;;16.37;9.80;;;2.10;67.90;;;;;;5077865;28;20035;-81
2021/11/25 05:44:07;;;;;;;20.57;12.20;;;2.20;68.10;;;;;;5076882;28;20035;-81
2021/11/25 05:46:33;;;;;;;26.33;13.07;;;2.10;68.00;;;;;;5057255;28;20094;-81
2021/11/25 05:48:59;;;;;;;22.10;11.70;;;2.20;68.00;;;;;;5074287;28;20479;-81
2021/11/25 05:51:25;;;;;;;18.67;11.33;;;2.20;67.90;;;;;;5070763;28;20020;-81
2021/11/25 05:53:51;;;;;;;17.70;9.03;;;2.10;67.80;;;;;;5072278;28;20028;-81
2021/11/25 05:56:17;;;;;;;20.57;10.77;;;2.20;67.90;;;;;;5057695;28;20035;-81
2021/11/25 05:58:42;;;;;;;23.70;12.77;;;2.20;67.80;;;;;;5052881;28;20028;-81
2021/11/25 06:01:08;;;;;;;67.00;31.70;;;2.20;67.80;;;;;;5071202;28;20032;-81
2021/11/25 06:03:34;;;;;;;29.77;13.40;;;2.20;67.60;;;;;;5056334;28;20547;-81
2021/11/25 06:06:00;;;;;;;45.73;20.03;;;2.10;67.80;;;;;;5070204;28;20024;-81
2021/11/25 06:08:26;;;;;;;28.37;14.77;;;2.10;68.00;;;;;;5045031;28;20029;-81
2021/11/25 06:10:52;;;;;;;25.57;13.93;;;2.10;67.90;;;;;;5051013;28;20029;-81
2021/11/25 06:13:18;;;;;;;35.90;18.77;;;2.10;68.00;;;;;;5064941;28;20017;-81
2021/11/25 06:15:46;;;;;;;26.57;15.57;;;2.10;67.90;;;;;;5056384;28;20499;-80
2021/11/25 06:18:13;;;;;;;24.13;13.73;;;2.10;67.90;;;;;;5053563;28;20372;-81
2021/11/25 06:20:39;;;;;;;19.67;12.77;;;2.10;67.90;;;;;;5074321;28;20047;-81
2021/11/25 06:23:05;;;;;;;44.10;22.33;;;2.10;67.90;;;;;;5056455;28;20038;-81
2021/11/25 06:25:32;;;;;;;43.80;22.90;;;2.10;67.80;;;;;;5056046;28;20060;-79
2021/11/25 06:27:57;;;;;;;23.97;15.00;;;2.10;67.80;;;;;;5069945;28;20491;-79
2021/11/25 06:30:24;;;;;;;20.00;12.47;;;2.10;68.00;;;;;;5074191;28;20031;-78
2021/11/25 06:32:51;;;;;;;26.33;13.67;;;2.00;68.00;;;;;;5071658;28;20024;-79
2021/11/25 06:35:19;;;;;;;27.63;16.53;;;2.00;68.20;;;;;;5087765;28;20024;-78
2021/11/25 06:37:53;;;;;;;23.63;15.77;;;2.10;68.20;;;;;;5094153;28;20028;-78
2021/11/25 06:40:31;;;;;;;36.17;22.20;;;2.00;68.20;;;;;;5048058;28;20039;-79
2021/11/25 06:42:59;;;;;;;28.30;18.37;;;2.00;68.20;;;;;;5066848;28;20025;-78
2021/11/25 06:45:25;;;;;;;30.03;15.33;;;2.10;68.10;;;;;;5048762;28;20032;-79
2021/11/25 06:47:52;;;;;;;33.83;19.10;;;2.10;68.00;;;;;;5080325;28;20516;-78
2021/11/25 06:50:19;;;;;;;37.50;19.20;;;2.10;68.10;;;;;;5094211;28;20016;-79
2021/11/25 06:52:46;;;;;;;26.40;15.80;;;2.10;68.10;;;;;;5068816;28;20026;-78
2021/11/25 06:55:12;;;;;;;26.30;15.07;;;2.10;68.10;;;;;;5049886;28;20036;-79
2021/11/25 06:57:39;;;;;;;25.63;14.87;;;2.20;68.00;;;;;;5041949;28;20029;-79
2021/11/25 07:00:08;;;;;;;28.87;16.20;;;2.20;67.90;;;;;;5070073;28;20016;-79
2021/11/25 07:02:34;;;;;;;37.80;18.73;;;2.20;67.90;;;;;;5065764;28;20021;-77
2021/11/25 07:05:00;;;;;;;29.50;16.33;;;2.10;67.80;;;;;;5072126;28;20031;-78
2021/11/25 07:07:26;;;;;;;30.60;16.13;;;2.10;68.30;;;;;;5059059;28;20456;-79
2021/11/25 07:09:52;;;;;;;25.50;14.67;;;2.10;68.40;;;;;;5053965;28;20037;-78
2021/11/25 07:12:17;;;;;;;29.67;14.10;;;2.10;68.40;;;;;;5046127;28;20401;-79
2021/11/25 07:14:44;;;;;;;29.07;15.93;;;2.20;68.60;;;;;;5053681;28;20021;-79
2021/11/25 07:17:10;;;;;;;20.83;12.70;;;2.20;68.40;;;;;;5063475;28;20028;-78
2021/11/25 07:19:36;;;;;;;38.77;21.27;;;2.20;68.40;;;;;;5056621;28;20086;-79
2021/11/25 07:22:01;;;;;;;42.27;21.07;;;2.20;68.50;;;;;;5071497;28;20040;-79
2021/11/25 07:24:27;;;;;;;46.60;21.97;;;2.30;68.40;;;;;;5055270;28;20029;-78
2021/11/25 07:26:53;;;;;;;43.03;22.20;;;2.30;68.30;;;;;;5071768;28;20044;-79
2021/11/25 07:29:19;;;;;;;32.83;19.00;;;2.40;68.50;;;;;;5064962;28;20088;-80
2021/11/25 07:31:46;;;;;;;27.07;14.83;;;2.40;68.40;;;;;;5072527;28;20455;-80
2021/11/25 07:34:12;;;;;;;21.77;12.47;;;2.40;68.40;;;;;;5068028;28;20036;-80
2021/11/25 07:36:39;;;;;;;20.43;12.90;;;2.40;68.40;;;;;;5066207;28;20108;-79
2021/11/25 07:39:05;;;;;;;18.63;12.47;;;2.50;68.40;;;;;;5055620;28;20055;-79
2021/11/25 07:41:37;;;;;;;23.87;14.03;;;2.50;68.60;;;;;;5072984;28;20075;-79
2021/11/25 07:44:03;;;;;;;;;;;2.50;68.60;;;;;;5069344;28;20024;-80
2021/11/25 07:46:29;;;;;;;26.43;16.10;;;2.60;68.50;;;;;;5056506;28;19905;-79
2021/11/25 07:48:55;;;;;;;26.03;14.27;;;2.60;68.30;;;;;;5073397;28;20025;-79
2021/11/25 07:51:21;;;;;;;22.13;14.00;;;2.60;68.40;;;;;;5071918;28;20546;-80
2021/11/25 07:53:48;;;;;;;17.67;11.37;;;2.60;68.40;;;;;;5054978;28;20028;-79
2021/11/25 07:56:13;;;;;;;19.87;11.40;;;2.60;68.30;;;;;;5071019;28;20032;-80
2021/11/25 07:58:39;;;;;;;24.73;14.13;;;2.60;68.50;;;;;;5054551;28;20476;-80
2021/11/25 08:01:05;;;;;;;40.37;18.60;;;2.60;68.50;;;;;;5067802;28;20021;-80
2021/11/25 08:03:31;;;;;;;62.67;28.57;;;2.60;68.60;;;;;;5035131;28;20036;-80
2021/11/25 08:05:56;;;;;;;50.90;21.00;;;2.60;68.40;;;;;;5034935;28;20024;-79
2021/11/25 08:08:22;;;;;;;31.37;16.40;;;2.60;68.40;;;;;;5060279;28;20034;-80
2021/11/25 08:10:48;;;;;;;24.13;14.97;;;2.70;68.60;;;;;;5070059;28;20029;-79
2021/11/25 08:13:14;;;;;;;31.20;13.93;;;2.70;68.50;;;;;;5057962;28;20032;-80
2021/11/25 08:15:40;;;;;;;24.67;14.43;;;2.70;68.60;;;;;;5060764;28;20036;-80
2021/11/25 08:18:06;;;;;;;23.03;14.23;;;2.70;68.60;;;;;;5067904;28;20024;-80
2021/11/25 08:20:32;;;;;;;24.97;14.60;;;2.70;68.80;;;;;;5093154;28;20101;-80
2021/11/25 08:22:58;;;;;;;21.43;14.20;;;2.80;68.80;;;;;;5078458;28;20056;-80
2021/11/25 08:25:24;;;;;;;29.73;17.83;;;2.80;68.70;;;;;;5069594;28;20025;-79
2021/11/25 08:27:54;;;;;;;31.00;20.10;;;2.80;68.80;;;;;;5047961;28;20055;-80
2021/11/25 08:30:21;;;;;;;32.83;18.93;;;2.70;69.00;;;;;;5057365;28;20017;-79
2021/11/25 08:32:47;;;;;;;36.57;19.20;;;2.80;69.70;;;;;;5074084;28;20073;-80
2021/11/25 08:35:13;;;;;;;32.13;18.80;;;2.90;69.70;;;;;;5072606;28;20048;-80
2021/11/25 08:37:40;;;;;;;36.23;16.87;;;3.10;69.70;;;;;;5052668;28;20051;-80
2021/11/25 08:40:08;;;;;;;37.37;20.13;;;3.20;69.60;;;;;;5069857;28;20490;-80
2021/11/25 08:42:33;;;;;;;22.33;13.47;;;3.30;69.60;;;;;;5073898;28;20111;-80
2021/11/25 08:44:59;;;;;;;20.03;12.00;;;3.30;69.70;;;;;;5052049;28;20167;-80
2021/11/25 08:47:25;;;;;;;21.60;12.57;;;3.40;69.60;;;;;;5068852;28;20024;-80
2021/11/25 08:49:51;;;;;;;46.87;24.43;;;3.40;69.60;;;;;;5050694;28;20035;-80
2021/11/25 08:52:17;;;;;;;52.63;26.37;;;3.40;69.80;;;;;;5044572;28;20024;-80
2021/11/25 08:54:43;;;;;;;36.10;19.20;;;3.50;69.60;;;;;;5054262;28;20032;-80
2021/11/25 08:57:09;;;;;;;36.27;20.60;;;3.50;69.60;;;;;;5055254;28;20423;-80
2021/11/25 08:59:35;;;;;;;30.90;18.60;;;3.60;69.50;;;;;;5060473;28;20074;-80
2021/11/25 09:02:01;;;;;;;27.83;17.13;;;3.60;69.40;;;;;;5073894;28;20024;-80
2021/11/25 09:04:27;;;;;;;29.90;17.07;;;3.70;69.50;;;;;;5050463;28;20548;-80
2021/11/25 09:06:53;;;;;;;28.63;15.90;;;3.80;69.60;;;;;;5072450;28;20033;-80
2021/11/25 09:09:20;;;;;;;21.70;12.80;;;3.90;69.40;;;;;;5047673;28;20119;-80
2021/11/25 09:11:46;;;;;;;27.27;14.27;;;4.00;69.50;;;;;;5054779;28;20029;-80
2021/11/25 09:14:12;;;;;;;29.10;17.40;;;4.30;69.60;;;;;;5037730;28;20084;-80
2021/11/25 09:16:38;;;;;;;31.10;18.30;;;4.40;69.20;;;;;;5038125;28;20750;-80
2021/11/25 09:19:04;;;;;;;32.67;18.57;;;4.40;68.90;;;;;;5056329;28;20111;-80
2021/11/25 09:21:30;;;;;;;27.70;17.90;;;4.50;68.90;;;;;;5074794;28;20028;-80
2021/11/25 09:23:59;;;;;;;29.47;17.00;;;4.50;69.00;;;;;;5062710;28;20350;-80
2021/11/25 09:26:25;;;;;;;31.53;17.20;;;4.50;69.10;;;;;;5074139;28;20034;-80
2021/11/25 09:28:53;;;;;;;26.33;16.93;;;4.50;69.10;;;;;;5072960;28;20051;-80
2021/11/25 09:31:19;;;;;;;28.77;15.77;;;4.60;69.10;;;;;;5057803;28;20039;-80
2021/11/25 09:33:45;;;;;;;22.13;15.10;;;4.60;69.20;;;;;;5071787;28;20025;-80
2021/11/25 09:36:11;;;;;;;24.07;15.57;;;4.70;69.30;;;;;;5078124;28;20411;-80
2021/11/25 09:38:37;;;;;;;21.23;13.47;;;4.80;69.20;;;;;;5077903;28;20035;-80
2021/11/25 09:41:03;;;;;;;21.10;12.83;;;4.90;69.10;;;;;;5075641;28;20032;-81
2021/11/25 09:43:29;;;;;;;28.00;20.23;;;5.00;69.10;;;;;;5057760;28;20040;-80
2021/11/25 09:45:55;;;;;;;65.07;43.00;;;5.00;69.00;;;;;;5075466;28;20037;-80
2021/11/25 09:48:23;;;;;;;36.60;25.80;;;5.00;68.90;;;;;;5054274;28;20025;-79
2021/11/25 09:50:51;;;;;;;29.70;15.10;;;5.10;69.10;;;;;;5037318;28;20039;-80
2021/11/25 09:53:20;;;;;;;22.10;15.43;;;5.10;68.80;;;;;;5039621;28;20064;-80
2021/11/25 09:55:49;;;;;;;21.03;12.60;;;5.20;68.80;;;;;;5045138;28;20036;-81
2021/11/25 09:58:18;;;;;;;19.67;11.53;;;5.30;68.60;;;;;;5053010;28;20041;-81
2021/11/25 10:00:48;;;;;;;19.70;9.73;;;5.30;68.40;;;;;;5037655;28;20083;-80
2021/11/25 10:03:17;;;;;;;21.53;10.80;;;5.40;68.50;;;;;;5034210;28;20049;-80
2021/11/25 10:06:02;;;;;;;17.53;10.57;;;5.40;68.50;;;;;;5033870;28;20067;-81
2021/11/25 10:08:43;;;;;;;21.40;13.93;;;5.60;68.50;;;;;;5040050;28;20112;-80
2021/11/25 10:11:11;;;;;;;19.40;12.63;;;5.70;68.20;;;;;;5028027;28;20398;-80
2021/11/25 10:13:47;;;;;;;19.00;11.80;;;5.70;68.00;;;;;;5049629;28;20049;-80
2021/11/25 10:16:16;;;;;;;13.67;9.07;;;5.80;68.20;;;;;;5028734;28;20029;-80
2021/11/25 10:18:46;;;;;;;19.33;11.30;;;5.90;67.90;;;;;;5036360;28;20492;-80
2021/11/25 10:21:15;;;;;;;17.43;10.13;;;6.20;68.00;;;;;;5035851;28;20086;-80
2021/11/25 10:23:43;;;;;;;17.40;9.83;;;6.40;67.20;;;;;;5051646;28;20083;-81
2021/11/25 10:26:13;;;;;;;12.03;6.07;;;6.40;66.90;;;;;;5031509;28;20762;-81
2021/11/25 10:29:06;;;;;;;11.50;5.07;;;6.40;66.50;;;;;;5033830;28;20033;-80
2021/11/25 10:31:40;;;;;;;12.10;6.32;;;6.40;66.50;;;;;;5035423;28;20040;-81
2021/11/25 10:34:11;;;;;;;10.03;5.40;;;6.50;66.40;;;;;;5029760;28;20029;-80
2021/11/25 10:40:14;;;;;;;16.50;8.10;;;6.70;65.10;;;;;;5048052;28;20041;-81
2021/11/25 10:42:36;;;;;;;27.87;13.20;;;6.60;65.00;;;;;;5039204;28;20060;-80
2021/11/25 10:45:11;;;;;;;14.13;6.67;;;6.50;65.20;;;;;;5037145;28;20037;-81
2021/11/25 10:47:36;;;;;;;18.00;8.43;;;6.40;65.20;;;;;;5026025;28;20025;-80
2021/11/25 10:50:07;;;;;;;18.20;6.53;;;6.30;65.40;;;;;;5051015;28;20013;-81
2021/11/25 10:52:39;;;;;;;12.70;5.57;;;6.30;65.40;;;;;;5064253;28;20040;-80
2021/11/25 10:55:12;;;;;;;10.47;5.80;;;6.40;65.50;;;;;;5089850;28;20031;-80
2021/11/25 10:57:48;;;;;;;10.23;5.90;;;6.40;65.10;;;;;;5074882;28;20043;-80
2021/11/25 11:00:23;;;;;;;13.93;6.40;;;6.50;64.70;;;;;;5071958;28;20020;-81
2021/11/25 11:03:09;;;;;;;15.23;5.73;;;6.60;64.60;;;;;;5090623;28;20391;-81
2021/11/25 11:05:57;;;;;;;19.80;9.50;;;6.60;64.20;;;;;;5079694;28;20031;-80
2021/11/25 11:08:26;;;;;;;14.07;6.40;;;6.70;64.00;;;;;;5074273;28;20031;-80
2021/11/25 11:11:04;;;;;;;19.17;9.20;;;6.70;64.00;;;;;;5053642;28;20085;-81
2021/11/25 11:16:46;;;;;;;15.03;8.40;;;6.80;63.90;;;;;;5081393;28;20081;-81
2021/11/25 11:18:56;;;;;;;18.53;8.97;;;6.80;64.20;;;;;;5078777;28;20057;-81
2021/11/25 11:21:32;;;;;;;13.57;8.30;;;6.90;64.50;;;;;;5092850;28;20042;-81
2021/11/25 11:24:01;;;;;;;15.73;8.60;;;7.10;64.60;;;;;;5060190;28;20116;-81
2021/11/25 11:26:27;;;;;;;13.97;7.93;;;7.50;64.30;;;;;;5080630;28;20066;-81
2021/11/25 11:28:53;;;;;;;14.60;7.67;;;7.80;64.30;;;;;;5074212;28;20466;-81
2021/11/25 11:31:19;;;;;;;13.80;7.77;;;8.00;63.60;;;;;;5072570;28;20021;-81
2021/11/25 11:33:47;;;;;;;15.93;8.23;;;8.20;63.40;;;;;;5091695;28;20035;-81
2021/11/25 11:36:13;;;;;;;15.90;8.40;;;8.30;63.30;;;;;;5068915;28;20077;-79
2021/11/25 11:38:40;;;;;;;11.50;7.43;;;8.30;63.20;;;;;;5073638;28;20032;-81
2021/11/25 11:41:13;;;;;;;16.80;8.10;;;8.20;63.30;;;;;;5057213;28;21496;-81
2021/11/25 11:43:39;;;;;;;17.43;7.03;;;8.10;63.30;;;;;;5072451;28;20035;-81
2021/11/25 11:46:05;;;;;;;13.43;7.10;;;8.10;63.20;;;;;;5091721;28;20032;-80
2021/11/25 11:48:32;;;;;;;15.03;6.70;;;8.10;63.20;;;;;;5069781;28;20591;-80
2021/11/25 11:50:58;;;;;;;12.63;7.10;;;8.20;63.10;;;;;;5062942;28;20016;-81
2021/11/25 11:53:38;;;;;;;13.27;5.93;;;8.20;63.10;;;;;;5071287;28;20055;-81
2021/11/25 11:56:05;;;;;;;12.87;7.07;;;8.30;63.10;;;;;;5063965;28;20506;-81
2021/11/25 11:58:41;;;;;;;10.60;6.83;;;8.50;62.80;;;;;;5075284;28;20024;-80
2021/11/25 12:01:15;;;;;;;12.53;6.80;;;8.60;62.30;;;;;;5093114;28;20082;-81
2021/11/25 12:03:42;;;;;;;13.47;5.97;;;8.70;61.90;;;;;;5084802;28;20025;-81
2021/11/25 12:06:09;;;;;;;18.50;8.13;;;8.70;61.70;;;;;;5082432;28;20472;-81
2021/11/25 12:08:35;;;;;;;18.37;9.23;;;8.60;61.70;;;;;;5070299;28;20058;-81
2021/11/25 12:11:05;;;;;;;14.97;8.47;;;8.60;61.80;;;;;;5088797;28;20055;-81
2021/11/25 12:13:36;;;;;;;13.43;8.13;;;8.50;61.90;;;;;;5093494;28;20023;-82
2021/11/25 12:16:17;;;;;;;10.90;7.20;;;8.50;62.10;;;;;;5078840;28;20099;-81
2021/11/25 12:18:56;;;;;;;14.37;7.33;;;8.50;62.30;;;;;;5091522;28;20534;-81
2021/11/25 12:21:37;;;;;;;15.53;7.13;;;8.50;62.30;;;;;;5073833;28;20031;-81
2021/11/25 12:24:26;;;;;;;13.50;7.10;;;8.60;61.90;;;;;;5100617;28;20031;-81
2021/11/25 12:27:17;;;;;;;12.07;6.57;;;8.60;61.60;;;;;;5092908;28;20060;-81
2021/11/25 12:29:44;;;;;;;12.33;6.70;;;8.70;61.50;;;;;;5087714;28;20560;-81
2021/11/25 12:35:14;;;;;;;22.60;6.93;;;9.00;60.90;;;;;;5085449;28;20031;-82
2021/11/25 12:37:49;;;;;;;17.30;7.27;;;9.00;60.40;;;;;;5086823;28;20485;-79
2021/11/25 12:40:14;;;;;;;13.47;8.23;;;9.10;60.10;;;;;;5089898;28;20112;-81
2021/11/25 12:43:02;;;;;;;14.60;7.97;;;9.10;59.70;;;;;;5080801;28;20427;-80
2021/11/25 12:45:35;;;;;;;17.87;12.07;;;9.30;59.30;;;;;;5080224;28;20024;-81
2021/11/25 12:48:26;;;;;;;18.33;12.47;;;9.30;59.10;;;;;;5088930;28;20463;-81
2021/11/25 12:51:04;;;;;;;15.03;8.33;;;9.30;58.40;;;;;;5083655;28;20032;-82
2021/11/25 12:53:35;;;;;;;15.27;7.00;;;9.30;59.10;;;;;;5072760;28;20090;-81
2021/11/25 12:56:10;;;;;;;12.27;7.40;;;9.40;58.60;;;;;;5075599;28;22151;-82
2021/11/25 12:58:59;;;;;;;7.63;5.50;;;9.40;58.40;;;;;;5094941;28;20023;-81